Airfield :
LOGIN :

Register | Disclaimer

   EN    FR    IT 

 










Legend :    VFR   Marginal VFR   IFR   Intensive IFR   Very Intensive IFR
Visi :
Ceiling :
>= 8 km
>= 3000ft
5 to 8 km
1000 to 3000 ft
1500m to 5 km
500 to 1000 ft
800 to 1500m
200 to 500 ft
< 800m
< 200 ft
Symbols :   Thunderstorms  Fog  Heavy snow  Heavy precipitations  Wind > 20 kt
SIGMETs :     Misc.  Thunderstorms  Icing  Turbulence  Mountain Waves  Volcanic Ashes







- Airport Elevation : 154 ft
- IATA code : SZZ


EPSC - Szczecin Goleniow

CURRENT METAR :
  • 251200Z 21015G26KT 180V240 9999 FEW014 17/12 Q1001

EXPIRED METARs :
  • 251130Z 23014G25KT 190V260 9999 -SHRA SCT028TCU BKN032 16/11 Q1001
  • 251100Z 23013KT 190V270 9999 FEW028 SCT033 BKN038 16/11 Q1001
  • 251030Z 24016G26KT 200V270 9999 SCT024 BKN032 16/11 Q1001
  • 251000Z 21015KT 170V240 9999 FEW014 SCT021 BKN029 16/12 Q1002
  • 250930Z 21011KT 180V240 9999 FEW011 14/12 Q1002

TAF TAF EPSC
Valid from the 25 at 12:00 until the 26 at 12:00 UTC


251130Z 2512/2612 24015KT 9999 BKN030
TEMPO 2512/2518 27021G36KT SHRA BKN009 BKN020CB
BECMG 2518/2520 23005KT
PROB40
TEMPO 2600/2609 -SHRA BKN009 BKN020CB
TEMPO 2609/2612 25015G25KT SHRA BKN020CB
No reported NOTAMs for that airfield.



MET'MAP, your aeronautical weather chart ! - Copyright ORBIFLY December 2007 - Disclaimer

ORBIFLY MET'MAP TEAM :

Programming & Development : Alexandra Zaïnal
Concept & Development : Baudouin d'Aumeries
Co-Development & Prog : Marc-Olivier Méhu
Technical & hardware support : Manuel Goepfert

Contact : metmap@orbifly.com




SOURCES & CREDITS :

   NOAA